createdAt,value
2022-10-04T00:00:11.071Z,82.53
2022-10-04T00:01:12.062Z,82.49
2022-10-04T00:02:19.065Z,82.21
2022-10-04T00:03:19.179Z,82.04
2022-10-04T00:04:21.065Z,82.03
2022-10-04T00:05:16.065Z,82.14
2022-10-04T00:06:16.063Z,82.32
2022-10-04T00:07:19.065Z,82.34
2022-10-04T00:08:21.070Z,82.35
2022-10-04T00:09:15.064Z,82.27
2022-10-04T00:10:21.063Z,82.35
2022-10-04T00:11:19.060Z,82.23
2022-10-04T00:12:19.067Z,82.18
2022-10-04T00:13:21.078Z,82.20
2022-10-04T00:14:17.067Z,82.21
2022-10-04T00:15:18.062Z,82.33
2022-10-04T00:16:19.142Z,82.60
2022-10-04T00:17:13.093Z,82.55
2022-10-04T00:18:23.066Z,82.56
2022-10-04T00:19:19.067Z,82.45
2022-10-04T00:20:21.065Z,82.42
2022-10-04T00:21:11.057Z,82.50
2022-10-04T00:22:13.061Z,82.30
2022-10-04T00:23:19.060Z,82.29
2022-10-04T00:24:21.057Z,82.39
2022-10-04T00:25:16.054Z,82.23
2022-10-04T00:26:20.061Z,82.27
2022-10-04T00:27:19.059Z,82.30
2022-10-04T00:28:16.104Z,82.17
2022-10-04T00:29:19.056Z,82.32
2022-10-04T00:30:19.059Z,82.38
2022-10-04T00:31:20.130Z,82.28
2022-10-04T00:32:19.060Z,82.16
2022-10-04T00:33:11.057Z,82.04
2022-10-04T00:34:19.062Z,82.09
2022-10-04T00:35:19.061Z,81.97
2022-10-04T00:36:19.061Z,81.87
2022-10-04T00:37:15.060Z,81.92
2022-10-04T00:38:14.059Z,81.96
2022-10-04T00:39:15.059Z,82.04
2022-10-04T00:40:17.060Z,82.51
2022-10-04T00:41:11.081Z,82.24
2022-10-04T00:42:19.059Z,81.92
2022-10-04T00:43:17.067Z,81.92
2022-10-04T00:44:16.060Z,81.79
2022-10-04T00:45:18.064Z,81.62
2022-10-04T00:46:19.166Z,81.79
2022-10-04T00:47:19.064Z,82.13
2022-10-04T00:48:19.062Z,82.07
2022-10-04T00:49:12.062Z,81.82
2022-10-04T00:50:20.057Z,81.87
2022-10-04T00:51:21.062Z,81.90
2022-10-04T00:52:19.069Z,82.03
2022-10-04T00:53:18.063Z,82.13
2022-10-04T00:54:19.058Z,82.20
2022-10-04T00:55:15.059Z,82.48
2022-10-04T00:56:15.064Z,82.22
2022-10-04T00:57:18.064Z,82.15
2022-10-04T00:58:19.059Z,81.94
2022-10-04T00:59:20.058Z,81.79
2022-10-04T01:00:14.064Z,81.72
2022-10-04T01:01:11.116Z,81.56
2022-10-04T01:02:21.176Z,81.54
2022-10-04T01:03:18.068Z,81.51
2022-10-04T01:04:19.066Z,81.69
2022-10-04T01:05:16.075Z,81.68
2022-10-04T01:06:11.063Z,81.56
2022-10-04T01:07:12.060Z,81.54
2022-10-04T01:08:21.066Z,81.51
2022-10-04T01:09:11.071Z,81.64
2022-10-04T01:10:19.065Z,81.57
2022-10-04T01:11:19.063Z,81.40
2022-10-04T01:12:19.063Z,81.43
2022-10-04T01:13:18.067Z,81.20
2022-10-04T01:14:19.066Z,81.17
2022-10-04T01:15:17.065Z,81.21
2022-10-04T01:16:19.117Z,81.42
2022-10-04T01:17:11.066Z,81.38
2022-10-04T01:18:21.067Z,81.22
2022-10-04T01:19:19.069Z,81.07
2022-10-04T01:20:19.064Z,80.97
2022-10-04T01:21:19.074Z,80.99
2022-10-04T01:22:18.068Z,81.17
2022-10-04T01:23:11.069Z,81.04
2022-10-04T01:24:17.057Z,81.05
2022-10-04T01:25:11.058Z,81.14
2022-10-04T01:26:19.072Z,81.25
2022-10-04T01:27:19.059Z,81.53
2022-10-04T01:28:11.153Z,81.74
2022-10-04T01:29:18.061Z,81.47
2022-10-04T01:30:15.062Z,81.67
2022-10-04T01:31:11.078Z,81.63
2022-10-04T01:32:11.060Z,81.80
2022-10-04T01:33:12.064Z,82.07
2022-10-04T01:34:12.069Z,82.25
2022-10-04T01:35:12.061Z,82.32
2022-10-04T01:36:11.056Z,82.38
2022-10-04T01:37:11.061Z,82.53
2022-10-04T01:38:11.070Z,82.58
2022-10-04T01:39:11.061Z,82.67
2022-10-04T01:40:11.064Z,82.62
2022-10-04T01:41:11.063Z,82.70
2022-10-04T01:42:19.060Z,83.02
2022-10-04T01:43:12.063Z,83.04
2022-10-04T01:44:15.080Z,82.79
2022-10-04T01:45:21.060Z,82.73
2022-10-04T01:46:14.145Z,82.71
2022-10-04T01:47:15.060Z,82.78
2022-10-04T01:48:16.062Z,82.61
2022-10-04T01:49:13.069Z,82.72
2022-10-04T01:50:21.065Z,82.63
2022-10-04T01:51:19.065Z,82.67
2022-10-04T01:52:19.082Z,82.59
2022-10-04T01:53:21.063Z,82.63
2022-10-04T01:54:17.060Z,82.50
2022-10-04T01:55:18.059Z,82.74
2022-10-04T01:56:18.063Z,83.14
2022-10-04T01:57:16.071Z,83.37
2022-10-04T01:58:19.064Z,83.65
2022-10-04T01:59:16.066Z,83.65
2022-10-04T02:00:12.066Z,83.62
2022-10-04T02:01:17.129Z,83.30
2022-10-04T02:02:20.065Z,83.25
2022-10-04T02:03:18.062Z,83.72
2022-10-04T02:04:22.089Z,83.58
2022-10-04T02:05:13.064Z,83.45
2022-10-04T02:06:11.073Z,83.40
2022-10-04T02:07:15.065Z,83.54
2022-10-04T02:08:14.063Z,83.42
2022-10-04T02:09:15.066Z,83.18
2022-10-04T02:10:18.063Z,83.21
2022-10-04T02:11:15.061Z,83.11
2022-10-04T02:12:14.065Z,83.21
2022-10-04T02:13:17.073Z,83.14
2022-10-04T02:14:17.067Z,83.43
2022-10-04T02:15:11.063Z,83.36
2022-10-04T02:16:11.168Z,83.71
2022-10-04T02:17:11.077Z,83.68
2022-10-04T02:18:16.066Z,83.54
2022-10-04T02:19:11.061Z,83.72
2022-10-04T02:20:17.067Z,83.76
2022-10-04T02:21:11.058Z,84.02
2022-10-04T02:22:11.058Z,83.79
2022-10-04T02:23:11.059Z,83.63
2022-10-04T02:24:11.065Z,83.36
2022-10-04T02:25:11.058Z,83.29
2022-10-04T02:26:11.061Z,83.29
2022-10-04T02:27:11.067Z,83.39
2022-10-04T02:28:13.115Z,83.39
2022-10-04T02:29:11.054Z,83.35
2022-10-04T02:30:11.065Z,83.33
2022-10-04T02:31:15.116Z,83.26
2022-10-04T02:32:15.058Z,83.52
2022-10-04T02:33:11.061Z,83.66
2022-10-04T02:34:11.068Z,83.50
2022-10-04T02:35:11.058Z,83.68
2022-10-04T02:36:12.060Z,84.04
2022-10-04T02:37:11.068Z,83.95
2022-10-04T02:38:22.060Z,83.68
2022-10-04T02:39:19.059Z,83.62
2022-10-04T02:40:13.062Z,83.85
2022-10-04T02:41:21.069Z,84.16
2022-10-04T02:42:18.064Z,84.05
2022-10-04T02:43:21.058Z,84.39
2022-10-04T02:44:17.060Z,84.57
2022-10-04T02:45:19.060Z,84.28
2022-10-04T02:46:17.090Z,84.42
2022-10-04T02:47:18.061Z,84.60
2022-10-04T02:48:21.062Z,84.58
2022-10-04T02:49:21.062Z,84.52
2022-10-04T02:50:19.064Z,84.56
2022-10-04T02:51:17.079Z,84.49
2022-10-04T02:52:19.061Z,84.64
2022-10-04T02:53:19.059Z,84.78
2022-10-04T02:54:21.061Z,85.00
2022-10-04T02:55:19.064Z,85.04
2022-10-04T02:56:11.070Z,84.93
2022-10-04T02:57:20.061Z,84.82
2022-10-04T02:58:14.063Z,84.82
2022-10-04T02:59:15.062Z,84.89
2022-10-04T03:00:19.071Z,85.39
2022-10-04T03:01:19.099Z,85.31
2022-10-04T03:02:26.918Z,85.24
2022-10-04T03:03:19.107Z,85.19
2022-10-04T03:04:12.063Z,85.04
2022-10-04T03:05:14.071Z,85.02
2022-10-04T03:06:14.061Z,85.19
2022-10-04T03:07:11.061Z,85.26
2022-10-04T03:08:11.066Z,85.13
2022-10-04T03:09:11.064Z,85.11
2022-10-04T03:10:13.062Z,85.03
2022-10-04T03:11:11.067Z,85.08
2022-10-04T03:12:12.065Z,85.20
2022-10-04T03:13:11.063Z,85.10
2022-10-04T03:14:18.067Z,84.95
2022-10-04T03:15:12.072Z,84.73
2022-10-04T03:16:11.159Z,84.67
2022-10-04T03:17:11.067Z,84.58
2022-10-04T03:18:11.072Z,84.40
2022-10-04T03:19:11.069Z,84.40
2022-10-04T03:20:11.063Z,84.55
2022-10-04T03:21:12.061Z,84.50
2022-10-04T03:22:11.069Z,84.46
2022-10-04T03:23:11.058Z,84.48
2022-10-04T03:24:15.060Z,84.70
2022-10-04T03:25:15.060Z,84.55
2022-10-04T03:26:19.059Z,84.28
2022-10-04T03:27:14.062Z,84.42
2022-10-04T03:28:11.150Z,84.55
2022-10-04T03:29:12.062Z,84.44
2022-10-04T03:30:14.057Z,84.68
2022-10-04T03:31:11.122Z,84.65
2022-10-04T03:32:16.065Z,84.71
2022-10-04T03:33:15.063Z,84.85
2022-10-04T03:34:21.058Z,84.80
2022-10-04T03:35:19.061Z,84.89
2022-10-04T03:36:14.059Z,84.98
2022-10-04T03:37:14.062Z,84.84
2022-10-04T03:38:11.075Z,84.90
2022-10-04T03:39:11.064Z,84.95
2022-10-04T03:40:11.066Z,85.17
2022-10-04T03:41:12.062Z,85.19
2022-10-04T03:42:14.066Z,85.09
2022-10-04T03:43:11.063Z,84.99
2022-10-04T03:44:15.060Z,84.96
2022-10-04T03:45:14.063Z,84.82
2022-10-04T03:46:11.133Z,84.72
2022-10-04T03:47:13.069Z,84.62
2022-10-04T03:48:12.070Z,84.61
2022-10-04T03:49:11.077Z,84.82
2022-10-04T03:50:19.069Z,84.74
2022-10-04T03:51:16.065Z,84.77
2022-10-04T03:52:18.074Z,84.74
2022-10-04T03:53:17.058Z,84.57
2022-10-04T03:54:15.065Z,84.56
2022-10-04T03:55:12.070Z,84.81
2022-10-04T03:56:15.061Z,85.00
2022-10-04T03:57:14.062Z,84.82
2022-10-04T03:58:13.071Z,85.11
2022-10-04T03:59:13.061Z,85.11
2022-10-04T04:00:14.064Z,84.93
2022-10-04T04:01:19.149Z,84.90
2022-10-04T04:02:18.110Z,84.72
2022-10-04T04:03:15.065Z,85.17
2022-10-04T04:04:21.063Z,84.77
2022-10-04T04:05:19.066Z,84.60
2022-10-04T04:06:18.066Z,84.54
2022-10-04T04:07:18.065Z,84.38
2022-10-04T04:08:17.063Z,84.40
2022-10-04T04:09:15.059Z,84.12
2022-10-04T04:10:19.065Z,84.01
2022-10-04T04:11:20.067Z,83.89
2022-10-04T04:12:20.065Z,83.77
2022-10-04T04:13:21.064Z,83.74
2022-10-04T04:14:18.061Z,83.68
2022-10-04T04:15:13.065Z,83.49
2022-10-04T04:16:11.110Z,83.49
2022-10-04T04:17:18.065Z,83.52
2022-10-04T04:18:19.067Z,83.48
2022-10-04T04:19:15.067Z,83.29
2022-10-04T04:20:19.066Z,83.05
2022-10-04T04:21:13.058Z,82.99
2022-10-04T04:22:16.058Z,82.97
2022-10-04T04:23:19.065Z,83.10
2022-10-04T04:24:19.061Z,83.04
2022-10-04T04:25:14.056Z,82.96
2022-10-04T04:26:19.057Z,83.07
2022-10-04T04:27:11.066Z,83.00
2022-10-04T04:28:21.113Z,83.05
2022-10-04T04:29:17.057Z,82.89
2022-10-04T04:30:15.062Z,82.75
2022-10-04T04:31:20.146Z,82.68
2022-10-04T04:32:19.060Z,82.78
2022-10-04T04:33:21.130Z,82.67
2022-10-04T04:34:19.060Z,82.48
2022-10-04T04:35:22.061Z,82.44
2022-10-04T04:36:12.059Z,82.34
2022-10-04T04:37:12.059Z,82.17
2022-10-04T04:38:17.056Z,82.09
2022-10-04T04:39:19.060Z,82.21
2022-10-04T04:40:20.066Z,82.20
2022-10-04T04:41:12.080Z,82.18
2022-10-04T04:42:17.058Z,82.17
2022-10-04T04:43:17.063Z,81.96
2022-10-04T04:44:16.063Z,81.96
2022-10-04T04:45:18.075Z,82.03
2022-10-04T04:46:26.090Z,81.98
2022-10-04T04:47:18.233Z,81.81
2022-10-04T04:48:14.064Z,81.64
2022-10-04T04:49:12.062Z,81.56
2022-10-04T04:50:16.063Z,81.67
2022-10-04T04:51:19.060Z,81.55
2022-10-04T04:52:16.062Z,81.50
2022-10-04T04:53:19.070Z,81.44
2022-10-04T04:54:11.063Z,81.45
2022-10-04T04:55:19.068Z,81.47
2022-10-04T04:56:15.173Z,81.37
2022-10-04T04:57:16.075Z,81.37
2022-10-04T04:58:15.063Z,81.37
2022-10-04T04:59:11.061Z,81.25
2022-10-04T05:00:16.096Z,81.26
2022-10-04T05:01:19.150Z,81.24
2022-10-04T05:02:19.103Z,81.12
2022-10-04T05:03:18.061Z,81.21
2022-10-04T05:04:18.075Z,81.11
2022-10-04T05:05:15.065Z,81.08
2022-10-04T05:06:19.073Z,81.01
2022-10-04T05:07:17.065Z,81.09
2022-10-04T05:08:18.068Z,81.10
2022-10-04T05:09:21.065Z,81.00
2022-10-04T05:10:19.066Z,81.00
2022-10-04T05:11:15.072Z,81.10
2022-10-04T05:12:20.062Z,80.85
2022-10-04T05:13:11.062Z,80.81
2022-10-04T05:14:12.064Z,80.76
2022-10-04T05:15:11.289Z,80.61
2022-10-04T05:16:18.107Z,80.65
2022-10-04T05:17:19.068Z,80.52
2022-10-04T05:18:19.067Z,80.41
2022-10-04T05:19:19.075Z,80.51
2022-10-04T05:20:14.066Z,80.58
2022-10-04T05:21:20.064Z,80.57
2022-10-04T05:22:13.059Z,80.50
2022-10-04T05:23:13.064Z,80.70
2022-10-04T05:24:19.058Z,80.63
2022-10-04T05:25:19.055Z,80.51
2022-10-04T05:26:14.059Z,80.51
2022-10-04T05:27:21.061Z,80.51
2022-10-04T05:28:12.085Z,80.55
2022-10-04T05:29:16.056Z,80.45
2022-10-04T05:30:19.069Z,80.34
2022-10-04T05:31:21.097Z,80.26
2022-10-04T05:32:19.063Z,80.25
2022-10-04T05:33:12.060Z,80.33
2022-10-04T05:34:19.060Z,80.44
2022-10-04T05:35:20.070Z,80.41
2022-10-04T05:36:23.060Z,80.61
2022-10-04T05:37:19.061Z,80.50
2022-10-04T05:38:21.068Z,80.50
2022-10-04T05:39:19.060Z,80.52
2022-10-04T05:40:21.069Z,80.45
2022-10-04T05:41:19.061Z,80.58
2022-10-04T05:42:19.059Z,80.70
2022-10-04T05:43:19.058Z,80.84
2022-10-04T05:44:19.060Z,80.80
2022-10-04T05:45:18.067Z,81.04
2022-10-04T05:46:21.128Z,80.89
2022-10-04T05:47:12.062Z,80.92
2022-10-04T05:48:13.062Z,80.93
2022-10-04T05:49:18.851Z,81.13
2022-10-04T05:50:20.111Z,81.08
2022-10-04T05:51:19.063Z,80.96
2022-10-04T05:52:16.060Z,80.92
2022-10-04T05:53:19.062Z,80.95
2022-10-04T05:54:11.070Z,80.84
2022-10-04T05:55:21.061Z,80.75
2022-10-04T05:56:19.062Z,80.79
2022-10-04T05:57:19.063Z,80.95
2022-10-04T05:58:21.064Z,80.80
2022-10-04T05:59:19.076Z,80.73
2022-10-04T06:00:19.064Z,80.68
2022-10-04T06:01:19.125Z,81.06
2022-10-04T06:02:19.103Z,81.12
2022-10-04T06:03:19.065Z,81.32
2022-10-04T06:04:19.064Z,81.40
2022-10-04T06:05:18.064Z,81.16
2022-10-04T06:06:21.067Z,81.43
2022-10-04T06:07:21.066Z,81.26
2022-10-04T06:08:20.073Z,81.36
2022-10-04T06:09:21.066Z,81.26
2022-10-04T06:10:21.066Z,81.07
2022-10-04T06:11:19.063Z,81.19
2022-10-04T06:12:17.062Z,81.41
2022-10-04T06:13:19.063Z,81.62
2022-10-04T06:14:21.075Z,81.52
2022-10-04T06:15:19.067Z,81.49
2022-10-04T06:16:21.117Z,81.40
2022-10-04T06:17:19.065Z,81.23
2022-10-04T06:18:21.072Z,81.12
2022-10-04T06:19:21.064Z,81.00
2022-10-04T06:20:19.074Z,81.13
2022-10-04T06:21:21.060Z,81.12
2022-10-04T06:22:20.059Z,81.05
2022-10-04T06:23:16.055Z,81.04
2022-10-04T06:24:16.060Z,80.95
2022-10-04T06:25:17.065Z,81.17
2022-10-04T06:26:20.057Z,81.49
2022-10-04T06:27:19.055Z,81.54
2022-10-04T06:28:21.135Z,81.61
2022-10-04T06:29:17.058Z,81.51
2022-10-04T06:30:18.065Z,81.60
2022-10-04T06:31:21.143Z,81.81
2022-10-04T06:32:19.058Z,81.62
2022-10-04T06:33:21.060Z,81.80
2022-10-04T06:34:19.061Z,81.76
2022-10-04T06:35:21.062Z,81.96
2022-10-04T06:36:19.061Z,81.75
2022-10-04T06:37:19.058Z,81.74
2022-10-04T06:38:19.055Z,81.67
2022-10-04T06:39:21.058Z,81.48
2022-10-04T06:40:19.069Z,81.39
2022-10-04T06:41:21.061Z,81.42
2022-10-04T06:42:21.075Z,81.56
2022-10-04T06:43:21.061Z,81.54
2022-10-04T06:44:21.060Z,81.38
2022-10-04T06:45:19.061Z,81.49
2022-10-04T06:46:21.156Z,81.61
2022-10-04T06:47:19.062Z,81.60
2022-10-04T06:48:19.059Z,81.73
2022-10-04T06:49:19.060Z,81.94
2022-10-04T06:50:21.062Z,81.72
2022-10-04T06:51:19.068Z,81.70
2022-10-04T06:52:19.062Z,81.81
2022-10-04T06:53:19.060Z,81.86
2022-10-04T06:54:19.058Z,82.33
2022-10-04T06:55:19.062Z,82.13
2022-10-04T06:56:19.073Z,82.38
2022-10-04T06:57:19.063Z,82.08
2022-10-04T06:58:22.066Z,81.92
2022-10-04T06:59:21.061Z,81.74
2022-10-04T07:00:21.063Z,81.75
2022-10-04T07:01:19.171Z,81.74
2022-10-04T07:02:19.185Z,81.90
2022-10-04T07:03:21.060Z,81.79
2022-10-04T07:04:21.063Z,81.74
2022-10-04T07:05:19.061Z,81.94
2022-10-04T07:06:11.064Z,82.05
2022-10-04T07:07:23.064Z,81.96
2022-10-04T07:08:22.065Z,81.78
2022-10-04T07:09:19.062Z,81.92
2022-10-04T07:10:21.078Z,81.89
2022-10-04T07:11:19.065Z,81.72
2022-10-04T07:12:14.080Z,81.73
2022-10-04T07:13:21.155Z,81.76
2022-10-04T07:14:19.064Z,81.84
2022-10-04T07:15:19.065Z,82.05
2022-10-04T07:16:21.159Z,82.00
2022-10-04T07:17:23.066Z,82.09
2022-10-04T07:18:20.066Z,82.32
2022-10-04T07:19:19.085Z,82.01
2022-10-04T07:20:19.065Z,81.94
2022-10-04T07:21:13.057Z,82.08
2022-10-04T07:22:19.059Z,82.06
2022-10-04T07:23:19.057Z,82.03
2022-10-04T07:24:12.060Z,81.83
2022-10-04T07:25:19.071Z,82.24
2022-10-04T07:26:21.058Z,82.43
2022-10-04T07:27:13.057Z,82.05
2022-10-04T07:28:21.142Z,81.89
2022-10-04T07:29:23.061Z,81.80
2022-10-04T07:30:15.062Z,81.60
2022-10-04T07:31:19.116Z,81.38
2022-10-04T07:32:18.057Z,81.50
2022-10-04T07:33:14.059Z,81.34
2022-10-04T07:34:22.058Z,81.38
2022-10-04T07:35:21.088Z,81.44
2022-10-04T07:36:17.636Z,81.61
2022-10-04T07:37:14.024Z,81.72
2022-10-04T07:38:21.063Z,81.51
2022-10-04T07:39:19.070Z,81.20
2022-10-04T07:40:19.068Z,81.29
2022-10-04T07:41:21.069Z,81.32
2022-10-04T07:42:19.079Z,81.17
2022-10-04T07:43:20.067Z,80.99
2022-10-04T07:44:19.068Z,80.99
2022-10-04T07:45:19.066Z,81.05
2022-10-04T07:46:19.134Z,80.92
2022-10-04T07:47:19.063Z,80.79
2022-10-04T07:48:16.070Z,81.06
2022-10-04T07:49:19.067Z,80.94
2022-10-04T07:50:19.086Z,80.75
2022-10-04T07:51:23.077Z,80.86
2022-10-04T07:52:19.065Z,80.64
2022-10-04T07:53:16.064Z,80.81
2022-10-04T07:54:21.063Z,80.61
2022-10-04T07:55:19.080Z,80.78
2022-10-04T07:56:18.090Z,80.64
2022-10-04T07:57:19.060Z,80.57
2022-10-04T07:58:21.070Z,80.54
2022-10-04T07:59:19.068Z,80.58
2022-10-04T08:00:18.086Z,80.54
2022-10-04T08:01:21.079Z,80.42
2022-10-04T08:02:21.181Z,80.59
2022-10-04T08:03:19.119Z,80.36
2022-10-04T08:04:19.066Z,80.34
2022-10-04T08:05:21.066Z,80.21
2022-10-04T08:06:21.071Z,80.23
2022-10-04T08:07:19.065Z,80.08
2022-10-04T08:08:19.101Z,80.12
2022-10-04T08:09:21.085Z,80.00
2022-10-04T08:10:19.062Z,80.08
2022-10-04T08:11:19.076Z,80.20
2022-10-04T08:12:17.071Z,80.23
2022-10-04T08:13:19.063Z,80.08
2022-10-04T08:14:19.065Z,79.93
2022-10-04T08:15:19.071Z,79.77
2022-10-04T08:16:19.117Z,79.66
2022-10-04T08:17:19.063Z,79.74
2022-10-04T08:18:19.061Z,79.98
2022-10-04T08:19:21.064Z,80.11
2022-10-04T08:20:19.077Z,79.81
2022-10-04T08:21:15.060Z,79.91
2022-10-04T08:22:19.060Z,79.83
2022-10-04T08:23:21.054Z,79.70
2022-10-04T08:24:19.059Z,79.50
2022-10-04T08:25:19.066Z,79.43
2022-10-04T08:26:19.059Z,79.40
2022-10-04T08:27:19.056Z,79.28
2022-10-04T08:28:23.146Z,79.19
2022-10-04T08:29:25.064Z,79.22
2022-10-04T08:30:17.068Z,79.23
2022-10-04T08:31:19.092Z,79.10
2022-10-04T08:32:19.060Z,78.95
2022-10-04T08:33:19.056Z,78.85
2022-10-04T08:34:21.060Z,78.87
2022-10-04T08:35:19.066Z,78.81
2022-10-04T08:36:21.085Z,79.27
2022-10-04T08:37:21.060Z,79.42
2022-10-04T08:38:21.058Z,79.21
2022-10-04T08:39:19.062Z,78.91
2022-10-04T08:40:19.131Z,78.64
2022-10-04T08:41:21.082Z,78.66
2022-10-04T08:42:19.062Z,78.60
2022-10-04T08:43:19.059Z,78.37
2022-10-04T08:44:19.061Z,78.10
2022-10-04T08:45:21.074Z,77.84
2022-10-04T08:46:19.144Z,77.99
2022-10-04T08:47:21.983Z,77.71
2022-10-04T08:48:19.057Z,77.43
2022-10-04T08:49:19.063Z,77.26
2022-10-04T08:50:19.071Z,76.95
2022-10-04T08:51:21.074Z,76.52
2022-10-04T08:52:19.062Z,76.15
2022-10-04T08:53:19.059Z,76.05
2022-10-04T08:54:19.063Z,75.50
2022-10-04T08:55:19.070Z,75.38
2022-10-04T08:56:19.063Z,75.30
2022-10-04T08:57:23.068Z,74.98
2022-10-04T08:58:16.080Z,75.02
2022-10-04T08:59:19.061Z,75.00
2022-10-04T09:00:19.131Z,74.87
2022-10-04T09:01:19.172Z,74.74
2022-10-04T09:02:19.100Z,74.67
2022-10-04T09:03:22.918Z,74.29
2022-10-04T09:04:21.846Z,73.89
2022-10-04T09:05:21.076Z,73.79
2022-10-04T09:06:21.101Z,73.48
2022-10-04T09:07:19.063Z,73.37
2022-10-04T09:08:19.067Z,73.52
2022-10-04T09:09:19.067Z,73.29
2022-10-04T09:10:21.946Z,73.23
2022-10-04T09:11:21.085Z,73.19
2022-10-04T09:12:21.062Z,73.24
2022-10-04T09:13:19.065Z,73.29
2022-10-04T09:14:21.076Z,73.08
2022-10-04T09:15:17.074Z,73.11
2022-10-04T09:16:19.117Z,73.17
2022-10-04T09:17:22.327Z,73.03
2022-10-04T09:18:19.091Z,72.87
2022-10-04T09:19:23.071Z,72.86
2022-10-04T09:20:37.689Z,72.80
2022-10-04T09:21:18.081Z,72.51
2022-10-04T09:22:18.057Z,72.23
2022-10-04T09:23:21.063Z,71.95
2022-10-04T09:24:21.072Z,71.99
2022-10-04T09:25:19.060Z,72.00
2022-10-04T09:26:19.061Z,71.78
2022-10-04T09:27:37.087Z,71.93
2022-10-04T09:28:21.156Z,71.94
2022-10-04T09:29:21.061Z,71.97
2022-10-04T09:30:21.061Z,71.82
2022-10-04T09:31:19.179Z,71.86
2022-10-04T09:32:23.127Z,71.84
2022-10-04T09:33:21.079Z,71.75
2022-10-04T09:34:19.063Z,71.94
2022-10-04T09:35:21.065Z,72.33
2022-10-04T09:36:21.062Z,71.99
2022-10-04T09:37:21.078Z,72.12
2022-10-04T09:38:19.072Z,72.00
2022-10-04T09:39:29.856Z,71.80
2022-10-04T09:40:21.074Z,71.87
2022-10-04T09:41:19.062Z,71.83
2022-10-04T09:42:19.059Z,71.96
2022-10-04T09:43:19.091Z,71.73
2022-10-04T09:44:21.081Z,71.64
2022-10-04T09:45:21.060Z,71.74
2022-10-04T09:46:20.134Z,71.59
2022-10-04T09:47:19.062Z,71.74
2022-10-04T09:48:19.092Z,71.82
2022-10-04T09:49:19.062Z,71.63
2022-10-04T09:50:19.063Z,71.53
2022-10-04T09:51:21.088Z,71.39
2022-10-04T09:52:19.072Z,71.39
2022-10-04T09:53:19.065Z,71.46
2022-10-04T09:54:19.067Z,71.41
2022-10-04T09:55:19.064Z,71.54
2022-10-04T09:56:19.062Z,71.44
2022-10-04T09:57:21.062Z,71.68
2022-10-04T09:58:19.074Z,71.71
2022-10-04T09:59:19.065Z,71.49
2022-10-04T10:00:19.061Z,71.46
2022-10-04T10:01:19.098Z,71.61
2022-10-04T10:02:19.115Z,71.50
2022-10-04T10:03:21.231Z,71.30
2022-10-04T10:04:19.065Z,71.40
2022-10-04T10:05:19.068Z,71.46
2022-10-04T10:06:19.066Z,71.45
2022-10-04T10:07:19.072Z,71.53
2022-10-04T10:08:19.064Z,71.40
2022-10-04T10:09:23.062Z,71.31
2022-10-04T10:10:23.061Z,71.19
2022-10-04T10:11:25.064Z,71.23
2022-10-04T10:12:25.075Z,71.12
2022-10-04T10:13:23.079Z,71.73
2022-10-04T10:14:19.081Z,71.89
2022-10-04T10:15:19.065Z,71.66
2022-10-04T10:16:21.147Z,71.56
2022-10-04T10:17:21.067Z,71.55
2022-10-04T10:18:21.089Z,71.76
2022-10-04T10:19:19.074Z,71.87
2022-10-04T10:20:19.068Z,71.65
2022-10-04T10:21:19.057Z,71.58
2022-10-04T10:22:19.058Z,71.71
2022-10-04T10:23:19.064Z,71.71
2022-10-04T10:24:19.059Z,71.56
2022-10-04T10:25:21.058Z,71.39
2022-10-04T10:26:19.058Z,71.38
2022-10-04T10:27:19.061Z,71.21
2022-10-04T10:28:19.110Z,71.55
2022-10-04T10:29:23.099Z,71.32
2022-10-04T10:30:21.077Z,71.24
2022-10-04T10:31:20.150Z,71.18
2022-10-04T10:32:22.059Z,71.16
2022-10-04T10:33:19.061Z,71.14
2022-10-04T10:34:19.060Z,71.04
2022-10-04T10:35:19.062Z,71.11
2022-10-04T10:36:19.059Z,70.70
2022-10-04T10:37:15.057Z,71.32
2022-10-04T10:38:19.058Z,71.43
2022-10-04T10:39:22.069Z,71.38
2022-10-04T10:40:19.060Z,71.44
2022-10-04T10:41:19.059Z,71.62
2022-10-04T10:42:22.061Z,71.50
2022-10-04T10:43:19.061Z,71.39
2022-10-04T10:44:21.078Z,71.66
2022-10-04T10:45:23.063Z,71.51
2022-10-04T10:46:19.183Z,71.45
2022-10-04T10:47:22.070Z,71.48
2022-10-04T10:48:21.061Z,71.39
2022-10-04T10:49:22.133Z,71.27
2022-10-04T10:50:19.070Z,71.34
2022-10-04T10:51:18.079Z,71.41
2022-10-04T10:52:19.061Z,71.22
2022-10-04T10:53:22.063Z,71.43
2022-10-04T10:54:19.066Z,71.23
2022-10-04T10:55:19.064Z,71.31
2022-10-04T10:56:20.060Z,71.02
2022-10-04T10:57:19.058Z,70.98
2022-10-04T10:58:19.065Z,71.04
2022-10-04T10:59:19.069Z,70.87
2022-10-04T11:00:19.065Z,70.67
2022-10-04T11:01:22.114Z,70.60
2022-10-04T11:02:19.131Z,70.90
2022-10-04T11:03:23.280Z,70.32
2022-10-04T11:04:21.621Z,70.65
2022-10-04T11:05:19.074Z,70.80
2022-10-04T11:06:21.062Z,70.69
2022-10-04T11:07:19.063Z,70.71
2022-10-04T11:08:19.063Z,70.78
2022-10-04T11:09:19.071Z,70.57
2022-10-04T11:10:19.069Z,70.62
2022-10-04T11:11:22.064Z,70.57
2022-10-04T11:12:19.065Z,70.67
2022-10-04T11:13:19.064Z,70.65
2022-10-04T11:14:19.073Z,70.77
2022-10-04T11:15:19.065Z,70.54
2022-10-04T11:16:19.099Z,70.47
2022-10-04T11:17:19.069Z,70.46
2022-10-04T11:18:19.068Z,70.44
2022-10-04T11:19:19.072Z,70.45
2022-10-04T11:20:22.065Z,70.43
2022-10-04T11:21:19.057Z,70.21
2022-10-04T11:22:21.058Z,70.37
2022-10-04T11:23:24.060Z,70.54
2022-10-04T11:24:21.071Z,70.68
2022-10-04T11:25:22.059Z,70.44
2022-10-04T11:26:19.056Z,70.65
2022-10-04T11:27:20.053Z,70.42
2022-10-04T11:28:21.104Z,70.29
2022-10-04T11:29:20.066Z,70.38
2022-10-04T11:30:22.059Z,70.37
2022-10-04T11:31:22.093Z,70.25
2022-10-04T11:32:19.059Z,70.41
2022-10-04T11:33:19.061Z,70.32
2022-10-04T11:34:23.069Z,70.16
2022-10-04T11:35:19.072Z,70.13
2022-10-04T11:36:20.060Z,70.00
2022-10-04T11:37:19.058Z,70.01
2022-10-04T11:38:19.062Z,70.06
2022-10-04T11:39:19.060Z,70.11
2022-10-04T11:40:19.068Z,69.93
2022-10-04T11:41:18.064Z,69.85
2022-10-04T11:42:23.059Z,69.80
2022-10-04T11:43:21.056Z,69.53
2022-10-04T11:44:19.063Z,69.41
2022-10-04T11:45:19.073Z,69.42
2022-10-04T11:46:18.171Z,69.63
2022-10-04T11:47:19.059Z,69.31
2022-10-04T11:48:23.063Z,69.20
2022-10-04T11:49:19.063Z,69.20
2022-10-04T11:50:20.071Z,69.08
2022-10-04T11:51:19.062Z,69.25
2022-10-04T11:52:19.061Z,68.97
2022-10-04T11:53:19.058Z,69.32
2022-10-04T11:54:19.061Z,69.11
2022-10-04T11:55:19.074Z,68.91
2022-10-04T11:56:21.065Z,68.81
2022-10-04T11:57:19.071Z,68.83
2022-10-04T11:58:22.064Z,68.73
2022-10-04T11:59:19.066Z,68.58
2022-10-04T12:00:17.072Z,68.65
2022-10-04T12:01:24.065Z,68.60
2022-10-04T12:02:19.063Z,68.75
2022-10-04T12:03:24.087Z,68.72
2022-10-04T12:04:19.080Z,68.79
2022-10-04T12:05:19.071Z,68.51
2022-10-04T12:06:22.066Z,68.49
2022-10-04T12:07:20.063Z,68.38
2022-10-04T12:08:22.061Z,68.33
2022-10-04T12:09:22.066Z,68.23
2022-10-04T12:10:22.067Z,68.31
2022-10-04T12:11:21.075Z,68.35
2022-10-04T12:12:23.066Z,68.29
2022-10-04T12:13:22.065Z,68.28
2022-10-04T12:14:22.064Z,68.21
2022-10-04T12:15:20.071Z,68.09
2022-10-04T12:16:22.144Z,68.17
2022-10-04T12:17:20.079Z,68.03
2022-10-04T12:18:19.068Z,68.03
2022-10-04T12:19:19.064Z,68.11
2022-10-04T12:20:19.071Z,67.84
2022-10-04T12:21:22.060Z,67.82
2022-10-04T12:22:19.059Z,67.88
2022-10-04T12:23:19.070Z,67.88
2022-10-04T12:24:15.058Z,67.65
2022-10-04T12:25:24.057Z,67.92
2022-10-04T12:26:22.054Z,67.63
2022-10-04T12:27:19.062Z,68.09
2022-10-04T12:28:23.133Z,68.02
2022-10-04T12:29:22.061Z,67.97
2022-10-04T12:30:19.061Z,67.87
2022-10-04T12:31:19.102Z,67.74
2022-10-04T12:32:17.061Z,67.78
2022-10-04T12:33:21.066Z,67.73
2022-10-04T12:34:22.061Z,67.56
2022-10-04T12:35:19.062Z,67.51
2022-10-04T12:36:19.061Z,67.57
2022-10-04T12:37:22.065Z,67.57
2022-10-04T12:38:20.064Z,67.63
2022-10-04T12:39:19.065Z,67.54
2022-10-04T12:40:19.060Z,67.55
2022-10-04T12:41:22.060Z,67.68
2022-10-04T12:42:22.062Z,67.59
2022-10-04T12:43:19.066Z,67.44
2022-10-04T12:44:19.062Z,67.62
2022-10-04T12:45:19.064Z,67.60
2022-10-04T12:46:22.129Z,67.75
2022-10-04T12:47:22.063Z,67.78
2022-10-04T12:48:19.063Z,67.90
2022-10-04T12:49:19.073Z,67.91
2022-10-04T12:50:19.062Z,68.01
2022-10-04T12:51:19.060Z,67.86
2022-10-04T12:52:18.067Z,67.59